sensor_id;sensor_type;location;lat;lon;timestamp;pressure;altitude;pressure_sealevel;temperature;humidity
5284;BME280;15377;48.540;9.268;2024-01-15T00:00:13;96461.34;;;-1.47;100.00
5284;BME280;15377;48.540;9.268;2024-01-15T00:02:38;96448.66;;;-1.50;100.00
5284;BME280;15377;48.540;9.268;2024-01-15T00:05:04;96460.44;;;-1.40;100.00
5284;BME280;15377;48.540;9.268;2024-01-15T00:07:29;96461.47;;;-1.34;100.00
5284;BME280;15377;48.540;9.268;2024-01-15T00:09:54;96452.38;;;-1.24;100.00
5284;BME280;15377;48.540;9.268;2024-01-15T00:12:20;96451.63;;;-1.25;100.00
5284;BME280;15377;48.540;9.268;2024-01-15T00:14:45;96453.91;;;-1.23;100.00
5284;BME280;15377;48.540;9.268;2024-01-15T00:17:11;96455.63;;;-1.13;100.00
5284;BME280;15377;48.540;9.268;2024-01-15T00:19:36;96469.13;;;-1.13;100.00
5284;BME280;15377;48.540;9.268;2024-01-15T00:22:02;96447.19;;;-1.15;100.00
5284;BME280;15377;48.540;9.268;2024-01-15T00:24:27;96451.38;;;-1.14;100.00
5284;BME280;15377;48.540;9.268;2024-01-15T00:26:52;96446.69;;;-1.10;100.00
5284;BME280;15377;48.540;9.268;2024-01-15T00:29:18;96449.72;;;-1.08;100.00
5284;BME280;15377;48.540;9.268;2024-01-15T00:31:44;96437.06;;;-1.11;100.00
5284;BME280;15377;48.540;9.268;2024-01-15T00:34:09;96451.59;;;-1.05;100.00
5284;BME280;15377;48.540;9.268;2024-01-15T00:36:35;96437.34;;;-1.06;100.00
5284;BME280;15377;48.540;9.268;2024-01-15T00:39:01;96448.72;;;-0.98;100.00
5284;BME280;15377;48.540;9.268;2024-01-15T00:41:26;96444.88;;;-0.97;100.00
5284;BME280;15377;48.540;9.268;2024-01-15T00:43:53;96441.13;;;-1.03;100.00
5284;BME280;15377;48.540;9.268;2024-01-15T00:46:18;96447.22;;;-0.99;100.00
5284;BME280;15377;48.540;9.268;2024-01-15T00:48:44;96444.88;;;-0.97;100.00
5284;BME280;15377;48.540;9.268;2024-01-15T00:51:09;96438.63;;;-0.94;100.00
5284;BME280;15377;48.540;9.268;2024-01-15T00:53:35;96439.31;;;-0.90;100.00
5284;BME280;15377;48.540;9.268;2024-01-15T00:56:00;96433.63;;;-0.96;100.00
5284;BME280;15377;48.540;9.268;2024-01-15T00:58:26;96436.09;;;-0.85;100.00
5284;BME280;15377;48.540;9.268;2024-01-15T01:00:52;96421.41;;;-0.84;100.00
5284;BME280;15377;48.540;9.268;2024-01-15T01:03:17;96408.50;;;-0.93;100.00
5284;BME280;15377;48.540;9.268;2024-01-15T01:05:43;96410.63;;;-0.84;100.00
5284;BME280;15377;48.540;9.268;2024-01-15T01:08:09;96414.34;;;-0.78;100.00
5284;BME280;15377;48.540;9.268;2024-01-15T01:10:34;96422.28;;;-0.71;100.00
5284;BME280;15377;48.540;9.268;2024-01-15T01:13:00;96418.47;;;-0.74;100.00
5284;BME280;15377;48.540;9.268;2024-01-15T01:15:25;96420.75;;;-0.72;100.00
5284;BME280;15377;48.540;9.268;2024-01-15T01:17:51;96422.19;;;-0.68;100.00
5284;BME280;15377;48.540;9.268;2024-01-15T01:20:16;96418.72;;;-0.68;100.00
5284;BME280;15377;48.540;9.268;2024-01-15T01:22:42;96433.25;;;-0.62;100.00
5284;BME280;15377;48.540;9.268;2024-01-15T01:25:07;96433.31;;;-0.66;100.00
5284;BME280;15377;48.540;9.268;2024-01-15T01:27:33;96437.91;;;-0.63;100.00
5284;BME280;15377;48.540;9.268;2024-01-15T01:29:59;96426.50;;;-0.70;100.00
5284;BME280;15377;48.540;9.268;2024-01-15T01:32:24;96444.06;;;-0.62;100.00
5284;BME280;15377;48.540;9.268;2024-01-15T01:34:49;96438.72;;;-0.66;100.00
5284;BME280;15377;48.540;9.268;2024-01-15T01:37:15;96438.31;;;-0.64;100.00
5284;BME280;15377;48.540;9.268;2024-01-15T01:39:41;96439.44;;;-0.62;100.00
5284;BME280;15377;48.540;9.268;2024-01-15T01:42:07;96445.50;;;-0.58;100.00
5284;BME280;15377;48.540;9.268;2024-01-15T01:44:32;96434.75;;;-0.61;100.00
5284;BME280;15377;48.540;9.268;2024-01-15T01:46:59;96421.78;;;-0.66;100.00
5284;BME280;15377;48.540;9.268;2024-01-15T01:49:25;96411.72;;;-0.66;100.00
5284;BME280;15377;48.540;9.268;2024-01-15T01:51:51;96420.06;;;-0.60;100.00
5284;BME280;15377;48.540;9.268;2024-01-15T01:54:18;96415.53;;;-0.63;100.00
5284;BME280;15377;48.540;9.268;2024-01-15T01:56:44;96417.03;;;-0.62;100.00
5284;BME280;15377;48.540;9.268;2024-01-15T01:59:11;96418.22;;;-0.63;100.00
5284;BME280;15377;48.540;9.268;2024-01-15T02:01:36;96426.00;;;-0.65;100.00
5284;BME280;15377;48.540;9.268;2024-01-15T02:04:03;96428.34;;;-0.67;100.00
5284;BME280;15377;48.540;9.268;2024-01-15T02:06:29;96431.72;;;-0.63;100.00
5284;BME280;15377;48.540;9.268;2024-01-15T02:08:55;96425.31;;;-0.69;100.00
5284;BME280;15377;48.540;9.268;2024-01-15T02:11:20;96430.38;;;-0.71;100.00
5284;BME280;15377;48.540;9.268;2024-01-15T02:13:46;96428.69;;;-0.81;100.00
5284;BME280;15377;48.540;9.268;2024-01-15T02:16:11;96418.38;;;-0.86;100.00
5284;BME280;15377;48.540;9.268;2024-01-15T02:18:43;96426.00;;;-0.81;100.00
5284;BME280;15377;48.540;9.268;2024-01-15T02:21:09;96418.38;;;-0.86;100.00
5284;BME280;15377;48.540;9.268;2024-01-15T02:23:35;96405.44;;;-0.95;100.00
5284;BME280;15377;48.540;9.268;2024-01-15T02:26:01;96413.13;;;-0.93;100.00
5284;BME280;15377;48.540;9.268;2024-01-15T02:28:26;96413.84;;;-0.89;100.00
5284;BME280;15377;48.540;9.268;2024-01-15T02:30:51;96412.13;;;-0.83;100.00
5284;BME280;15377;48.540;9.268;2024-01-15T02:33:17;96404.81;;;-0.83;100.00
5284;BME280;15377;48.540;9.268;2024-01-15T02:35:42;96415.53;;;-0.79;100.00
5284;BME280;15377;48.540;9.268;2024-01-15T02:38:08;96410.38;;;-0.74;100.00
5284;BME280;15377;48.540;9.268;2024-01-15T02:40:34;96411.88;;;-0.73;100.00
5284;BME280;15377;48.540;9.268;2024-01-15T02:42:59;96367.41;;;-1.00;100.00
5284;BME280;15377;48.540;9.268;2024-01-15T02:45:25;96368.59;;;-1.01;100.00
5284;BME280;15377;48.540;9.268;2024-01-15T02:47:51;96404.88;;;-0.86;100.00
5284;BME280;15377;48.540;9.268;2024-01-15T02:50:16;96395.94;;;-0.83;100.00
5284;BME280;15377;48.540;9.268;2024-01-15T02:52:42;96402.34;;;-0.77;100.00
5284;BME280;15377;48.540;9.268;2024-01-15T02:55:08;96400.50;;;-0.80;100.00
5284;BME280;15377;48.540;9.268;2024-01-15T02:57:33;96394.41;;;-0.84;100.00
5284;BME280;15377;48.540;9.268;2024-01-15T02:59:59;96403.53;;;-0.78;100.00
5284;BME280;15377;48.540;9.268;2024-01-15T03:02:24;96406.16;;;-0.75;100.00
5284;BME280;15377;48.540;9.268;2024-01-15T03:04:49;96412.66;;;-0.72;100.00
5284;BME280;15377;48.540;9.268;2024-01-15T03:07:15;96409.09;;;-0.69;100.00
5284;BME280;15377;48.540;9.268;2024-01-15T03:09:40;96414.19;;;-0.71;100.00
5284;BME280;15377;48.540;9.268;2024-01-15T03:12:06;96401.16;;;-0.76;100.00
5284;BME280;15377;48.540;9.268;2024-01-15T03:14:32;96406.47;;;-0.73;100.00
5284;BME280;15377;48.540;9.268;2024-01-15T03:16:57;96408.09;;;-0.75;100.00
5284;BME280;15377;48.540;9.268;2024-01-15T03:19:22;96389.88;;;-0.87;100.00
5284;BME280;15377;48.540;9.268;2024-01-15T03:21:48;96408.28;;;-0.82;100.00
5284;BME280;15377;48.540;9.268;2024-01-15T03:24:13;96391.06;;;-0.88;100.00
5284;BME280;15377;48.540;9.268;2024-01-15T03:26:38;96406.91;;;-0.90;100.00
5284;BME280;15377;48.540;9.268;2024-01-15T03:29:04;96388.19;;;-0.97;100.00
5284;BME280;15377;48.540;9.268;2024-01-15T03:31:29;96383.03;;;-0.92;100.00
5284;BME280;15377;48.540;9.268;2024-01-15T03:33:55;96382.94;;;-0.88;100.00
5284;BME280;15377;48.540;9.268;2024-01-15T03:36:21;96378.91;;;-0.80;100.00
5284;BME280;15377;48.540;9.268;2024-01-15T03:38:46;96373.50;;;-0.80;100.00
5284;BME280;15377;48.540;9.268;2024-01-15T03:41:12;96376.84;;;-0.76;100.00
5284;BME280;15377;48.540;9.268;2024-01-15T03:43:37;96337.38;;;-1.02;100.00
5284;BME280;15377;48.540;9.268;2024-01-15T03:46:03;96369.63;;;-0.79;100.00
5284;BME280;15377;48.540;9.268;2024-01-15T03:48:29;96385.66;;;-0.72;100.00
5284;BME280;15377;48.540;9.268;2024-01-15T03:50:55;96376.03;;;-0.73;100.00
5284;BME280;15377;48.540;9.268;2024-01-15T03:53:20;96368.00;;;-0.77;100.00
5284;BME280;15377;48.540;9.268;2024-01-15T03:55:46;96362.59;;;-0.77;100.00
5284;BME280;15377;48.540;9.268;2024-01-15T03:58:11;96352.63;;;-0.80;100.00
5284;BME280;15377;48.540;9.268;2024-01-15T04:00:37;96349.53;;;-0.78;100.00
5284;BME280;15377;48.540;9.268;2024-01-15T04:03:02;96357.13;;;-0.73;100.00
5284;BME280;15377;48.540;9.268;2024-01-15T04:05:27;96340.06;;;-0.86;100.00
5284;BME280;15377;48.540;9.268;2024-01-15T04:07:53;96352.22;;;-0.78;100.00
5284;BME280;15377;48.540;9.268;2024-01-15T04:10:18;96332.31;;;-0.84;100.00
5284;BME280;15377;48.540;9.268;2024-01-15T04:12:43;96361.31;;;-0.56;100.00
5284;BME280;15377;48.540;9.268;2024-01-15T04:15:11;96368.72;;;-0.44;100.00
5284;BME280;15377;48.540;9.268;2024-01-15T04:17:37;96362.50;;;-0.41;100.00
5284;BME280;15377;48.540;9.268;2024-01-15T04:20:03;96362.72;;;-0.36;100.00
5284;BME280;15377;48.540;9.268;2024-01-15T04:22:28;96370.75;;;-0.32;100.00
5284;BME280;15377;48.540;9.268;2024-01-15T04:24:54;96366.94;;;-0.35;100.00
5284;BME280;15377;48.540;9.268;2024-01-15T04:27:19;96369.72;;;-0.38;100.00
5284;BME280;15377;48.540;9.268;2024-01-15T04:29:44;96382.88;;;-0.24;100.00
5284;BME280;15377;48.540;9.268;2024-01-15T04:32:10;96374.09;;;-0.28;100.00
5284;BME280;15377;48.540;9.268;2024-01-15T04:34:35;96377.56;;;-0.28;100.00
5284;BME280;15377;48.540;9.268;2024-01-15T04:37:00;96382.22;;;-0.28;100.00
5284;BME280;15377;48.540;9.268;2024-01-15T04:39:26;96397.16;;;-0.24;100.00
5284;BME280;15377;48.540;9.268;2024-01-15T04:41:51;96376.25;;;-0.36;100.00
5284;BME280;15377;48.540;9.268;2024-01-15T04:44:16;96387.63;;;-0.28;100.00
5284;BME280;15377;48.540;9.268;2024-01-15T04:46:42;96378.53;;;-0.34;100.00
5284;BME280;15377;48.540;9.268;2024-01-15T04:49:09;96393.88;;;-0.31;100.00
5284;BME280;15377;48.540;9.268;2024-01-15T04:51:34;96388.91;;;-0.33;100.00
5284;BME280;15377;48.540;9.268;2024-01-15T04:54:00;96374.47;;;-0.26;100.00
5284;BME280;15377;48.540;9.268;2024-01-15T04:56:25;96376.97;;;-0.35;100.00
5284;BME280;15377;48.540;9.268;2024-01-15T04:58:50;96380.03;;;-0.33;100.00
5284;BME280;15377;48.540;9.268;2024-01-15T05:01:16;96379.34;;;-0.37;100.00
5284;BME280;15377;48.540;9.268;2024-01-15T05:03:42;96379.13;;;-0.43;100.00
5284;BME280;15377;48.540;9.268;2024-01-15T05:06:08;96367.22;;;-0.45;100.00
5284;BME280;15377;48.540;9.268;2024-01-15T05:08:34;96379.44;;;-0.41;100.00
5284;BME280;15377;48.540;9.268;2024-01-15T05:10:59;96372.44;;;-0.38;100.00
5284;BME280;15377;48.540;9.268;2024-01-15T05:13:25;96354.88;;;-0.46;100.00
5284;BME280;15377;48.540;9.268;2024-01-15T05:15:50;96364.00;;;-0.40;100.00
5284;BME280;15377;48.540;9.268;2024-01-15T05:18:16;96362.50;;;-0.41;100.00
5284;BME280;15377;48.540;9.268;2024-01-15T05:20:41;96351.69;;;-0.41;100.00
5284;BME280;15377;48.540;9.268;2024-01-15T05:23:07;96352.09;;;-0.43;100.00
5284;BME280;15377;48.540;9.268;2024-01-15T05:25:32;96341.69;;;-0.44;100.00
5284;BME280;15377;48.540;9.268;2024-01-15T05:27:58;96339.00;;;-0.44;100.00
5284;BME280;15377;48.540;9.268;2024-01-15T05:30:23;96343.13;;;-0.40;100.00
5284;BME280;15377;48.540;9.268;2024-01-15T05:32:48;96331.50;;;-0.37;100.00
5284;BME280;15377;48.540;9.268;2024-01-15T05:35:14;96322.94;;;-0.35;100.00
5284;BME280;15377;48.540;9.268;2024-01-15T05:37:43;96326.22;;;-0.28;100.00
5284;BME280;15377;48.540;9.268;2024-01-15T05:40:10;96326.72;;;-0.33;100.00
5284;BME280;15377;48.540;9.268;2024-01-15T05:42:36;96290.91;;;-0.49;100.00
5284;BME280;15377;48.540;9.268;2024-01-15T05:45:01;96326.63;;;-0.29;100.00
5284;BME280;15377;48.540;9.268;2024-01-15T05:47:29;96320.03;;;-0.28;100.00
5284;BME280;15377;48.540;9.268;2024-01-15T05:49:54;96335.75;;;-0.23;100.00
5284;BME280;15377;48.540;9.268;2024-01-15T05:52:20;96327.97;;;-0.21;100.00
5284;BME280;15377;48.540;9.268;2024-01-15T05:54:47;96332.63;;;-0.22;100.00
5284;BME280;15377;48.540;9.268;2024-01-15T05:57:14;96350.59;;;-0.15;100.00
5284;BME280;15377;48.540;9.268;2024-01-15T05:59:39;96341.06;;;-0.20;100.00
5284;BME280;15377;48.540;9.268;2024-01-15T06:02:05;96340.28;;;-0.20;100.00
5284;BME280;15377;48.540;9.268;2024-01-15T06:04:30;96339.66;;;-0.24;100.00
5284;BME280;15377;48.540;9.268;2024-01-15T06:06:55;96358.38;;;-0.17;100.00
5284;BME280;15377;48.540;9.268;2024-01-15T06:09:21;96348.75;;;-0.18;100.00
5284;BME280;15377;48.540;9.268;2024-01-15T06:11:46;96346.78;;;-0.18;100.00
5284;BME280;15377;48.540;9.268;2024-01-15T06:14:11;96345.69;;;-0.20;100.00
5284;BME280;15377;48.540;9.268;2024-01-15T06:16:37;96361.41;;;-0.15;100.00
5284;BME280;15377;48.540;9.268;2024-01-15T06:19:02;96341.16;;;-0.23;100.00
5284;BME280;15377;48.540;9.268;2024-01-15T06:21:28;96339.47;;;-0.17;100.00
5284;BME280;15377;48.540;9.268;2024-01-15T06:23:53;96318.34;;;-0.22;100.00
5284;BME280;15377;48.540;9.268;2024-01-15T06:26:19;96324.94;;;-0.23;100.00
5284;BME280;15377;48.540;9.268;2024-01-15T06:28:44;96323.25;;;-0.17;100.00
5284;BME280;15377;48.540;9.268;2024-01-15T06:31:09;96317.94;;;-0.21;100.00
5284;BME280;15377;48.540;9.268;2024-01-15T06:33:35;96305.13;;;-0.33;100.00
5284;BME280;15377;48.540;9.268;2024-01-15T06:36:00;96328.66;;;-0.17;100.00
5284;BME280;15377;48.540;9.268;2024-01-15T06:38:25;96326.69;;;-0.17;100.00
5284;BME280;15377;48.540;9.268;2024-01-15T06:40:51;96321.63;;;-0.15;100.00
5284;BME280;15377;48.540;9.268;2024-01-15T06:43:17;96320.84;;;-0.15;100.00
5284;BME280;15377;48.540;9.268;2024-01-15T06:45:43;96314.03;;;-0.20;100.00
5284;BME280;15377;48.540;9.268;2024-01-15T06:48:08;96320.00;;;-0.13;100.00
5284;BME280;15377;48.540;9.268;2024-01-15T06:50:34;96310.91;;;-0.18;100.00
5284;BME280;15377;48.540;9.268;2024-01-15T06:52:59;96314.59;;;-0.13;100.00
5284;BME280;15377;48.540;9.268;2024-01-15T06:55:25;96313.44;;;-0.11;100.00
5284;BME280;15377;48.540;9.268;2024-01-15T06:57:51;96292.50;;;-0.23;100.00
5284;BME280;15377;48.540;9.268;2024-01-15T07:00:17;96299.22;;;-0.15;100.00
5284;BME280;15377;48.540;9.268;2024-01-15T07:02:44;96297.72;;;-0.16;100.00
5284;BME280;15377;48.540;9.268;2024-01-15T07:05:10;96290.47;;;-0.19;100.00
5284;BME280;15377;48.540;9.268;2024-01-15T07:07:36;96305.63;;;-0.09;100.00
5284;BME280;15377;48.540;9.268;2024-01-15T07:10:01;96307.03;;;-0.17;100.00
5284;BME280;15377;48.540;9.268;2024-01-15T07:12:27;96321.75;;;-0.06;100.00
5284;BME280;15377;48.540;9.268;2024-01-15T07:14:52;96303.78;;;-0.13;100.00
5284;BME280;15377;48.540;9.268;2024-01-15T07:17:17;96304.53;;;-0.12;100.00
5284;BME280;15377;48.540;9.268;2024-01-15T07:19:43;96309.00;;;-0.06;100.00
5284;BME280;15377;48.540;9.268;2024-01-15T07:22:08;96312.88;;;-0.07;100.00
5284;BME280;15377;48.540;9.268;2024-01-15T07:24:33;96302.06;;;-0.07;100.00
5284;BME280;15377;48.540;9.268;2024-01-15T07:27:00;96301.44;;;0.02;100.00
5284;BME280;15377;48.540;9.268;2024-01-15T07:29:25;96291.72;;;0.04;100.00
5284;BME280;15377;48.540;9.268;2024-01-15T07:31:51;96275.81;;;-0.06;100.00
5284;BME280;15377;48.540;9.268;2024-01-15T07:34:17;96275.03;;;-0.07;100.00
5284;BME280;15377;48.540;9.268;2024-01-15T07:36:46;96296.25;;;0.07;100.00
5284;BME280;15377;48.540;9.268;2024-01-15T07:39:12;96294.44;;;0.04;100.00
5284;BME280;15377;48.540;9.268;2024-01-15T07:41:37;96285.44;;;0.07;100.00
5284;BME280;15377;48.540;9.268;2024-01-15T07:44:03;96300.28;;;0.15;100.00
5284;BME280;15377;48.540;9.268;2024-01-15T07:46:28;96292.81;;;0.19;100.00
5284;BME280;15377;48.540;9.268;2024-01-15T07:48:54;96295.09;;;0.21;100.00
5284;BME280;15377;48.540;9.268;2024-01-15T07:51:25;96288.06;;;0.23;100.00
5284;BME280;15377;48.540;9.268;2024-01-15T07:53:53;96300.53;;;0.33;100.00
5284;BME280;15377;48.540;9.268;2024-01-15T07:56:20;96289.38;;;0.31;100.00
5284;BME280;15377;48.540;9.268;2024-01-15T07:58:46;96296.63;;;0.34;100.00
5284;BME280;15377;48.540;9.268;2024-01-15T08:01:12;96286.03;;;0.40;100.00
5284;BME280;15377;48.540;9.268;2024-01-15T08:03:37;96281.38;;;0.40;100.00
5284;BME280;15377;48.540;9.268;2024-01-15T08:06:05;96285.81;;;0.47;100.00
5284;BME280;15377;48.540;9.268;2024-01-15T08:08:30;96314.94;;;0.55;100.00
5284;BME280;15377;48.540;9.268;2024-01-15T08:10:56;96294.16;;;0.52;100.00
5284;BME280;15377;48.540;9.268;2024-01-15T08:13:21;96309.31;;;0.62;100.00
5284;BME280;15377;48.540;9.268;2024-01-15T08:15:47;96289.38;;;0.56;100.00
5284;BME280;15377;48.540;9.268;2024-01-15T08:18:12;96286.56;;;0.60;100.00
5284;BME280;15377;48.540;9.268;2024-01-15T08:20:38;96291.34;;;0.68;100.00
5284;BME280;15377;48.540;9.268;2024-01-15T08:23:04;96288.97;;;0.70;100.00
5284;BME280;15377;48.540;9.268;2024-01-15T08:25:29;96283.31;;;0.77;100.00
5284;BME280;15377;48.540;9.268;2024-01-15T08:27:56;96289.38;;;0.81;100.00
5284;BME280;15377;48.540;9.268;2024-01-15T08:30:22;96271.63;;;0.80;100.00
5284;BME280;15377;48.540;9.268;2024-01-15T08:32:51;96275.94;;;0.90;100.00
5284;BME280;15377;48.540;9.268;2024-01-15T08:35:16;96265.09;;;0.90;100.00
5284;BME280;15377;48.540;9.268;2024-01-15T08:37:42;96270.84;;;0.92;100.00
5284;BME280;15377;48.540;9.268;2024-01-15T08:40:07;96277.13;;;0.89;100.00
5284;BME280;15377;48.540;9.268;2024-01-15T08:42:33;96279.28;;;0.94;100.00
5284;BME280;15377;48.540;9.268;2024-01-15T08:44:58;96288.81;;;0.99;100.00
5284;BME280;15377;48.540;9.268;2024-01-15T08:47:23;96283.81;;;0.97;100.00
5284;BME280;15377;48.540;9.268;2024-01-15T08:49:50;96288.72;;;1.02;100.00
5284;BME280;15377;48.540;9.268;2024-01-15T08:52:15;96293.66;;;1.16;100.00
5284;BME280;15377;48.540;9.268;2024-01-15T08:54:40;96291.50;;;1.11;100.00
5284;BME280;15377;48.540;9.268;2024-01-15T08:57:06;96297.56;;;1.15;100.00
5284;BME280;15377;48.540;9.268;2024-01-15T08:59:31;96288.88;;;1.20;100.00
5284;BME280;15377;48.540;9.268;2024-01-15T09:01:57;96310.09;;;1.34;100.00
5284;BME280;15377;48.540;9.268;2024-01-15T09:04:23;96291.19;;;1.43;100.00
5284;BME280;15377;48.540;9.268;2024-01-15T09:06:48;96290.34;;;1.46;100.00
5284;BME280;15377;48.540;9.268;2024-01-15T09:09:14;96296.16;;;1.57;100.00
5284;BME280;15377;48.540;9.268;2024-01-15T09:11:40;96290.19;;;1.62;100.00
5284;BME280;15377;48.540;9.268;2024-01-15T09:14:05;96277.47;;;1.59;100.00
5284;BME280;15377;48.540;9.268;2024-01-15T09:16:31;96284.41;;;1.60;100.00
5284;BME280;15377;48.540;9.268;2024-01-15T09:18:56;96295.03;;;1.67;100.00
5284;BME280;15377;48.540;9.268;2024-01-15T09:21:22;96300.44;;;1.67;100.00
5284;BME280;15377;48.540;9.268;2024-01-15T09:23:49;96310.44;;;1.70;100.00
5284;BME280;15377;48.540;9.268;2024-01-15T09:26:15;96285.56;;;1.72;100.00
5284;BME280;15377;48.540;9.268;2024-01-15T09:28:40;96290.25;;;1.71;100.00
5284;BME280;15377;48.540;9.268;2024-01-15T09:31:05;96280.25;;;1.68;100.00
5284;BME280;15377;48.540;9.268;2024-01-15T09:33:31;96267.84;;;1.58;100.00
5284;BME280;15377;48.540;9.268;2024-01-15T09:35:56;96268.84;;;1.73;100.00
5284;BME280;15377;48.540;9.268;2024-01-15T09:38:22;96259.47;;;1.87;100.00
5284;BME280;15377;48.540;9.268;2024-01-15T09:40:49;96261.50;;;1.95;100.00
5284;BME280;15377;48.540;9.268;2024-01-15T09:43:14;96252.72;;;1.91;100.00
5284;BME280;15377;48.540;9.268;2024-01-15T09:45:41;96263.47;;;2.04;100.00
5284;BME280;15377;48.540;9.268;2024-01-15T09:48:07;96247.63;;;1.93;100.00
5284;BME280;15377;48.540;9.268;2024-01-15T09:50:33;96256.41;;;2.06;100.00
5284;BME280;15377;48.540;9.268;2024-01-15T09:52:59;96248.31;;;2.15;100.00
5284;BME280;15377;48.540;9.268;2024-01-15T09:55:25;96266.22;;;2.34;100.00
5284;BME280;15377;48.540;9.268;2024-01-15T09:57:52;96257.78;;;2.32;100.00
5284;BME280;15377;48.540;9.268;2024-01-15T10:00:20;96258.44;;;2.45;100.00
5284;BME280;15377;48.540;9.268;2024-01-15T10:02:46;96246.72;;;2.57;100.00
5284;BME280;15377;48.540;9.268;2024-01-15T10:05:11;96237.50;;;2.55;100.00
5284;BME280;15377;48.540;9.268;2024-01-15T10:07:37;96224.53;;;2.59;100.00
5284;BME280;15377;48.540;9.268;2024-01-15T10:10:03;96233.72;;;2.52;100.00
5284;BME280;15377;48.540;9.268;2024-01-15T10:12:29;96226.38;;;2.62;100.00
5284;BME280;15377;48.540;9.268;2024-01-15T10:14:56;96236.19;;;2.68;100.00
5284;BME280;15377;48.540;9.268;2024-01-15T10:17:21;96209.03;;;2.68;100.00
5284;BME280;15377;48.540;9.268;2024-01-15T10:19:47;96209.66;;;2.72;100.00
5284;BME280;15377;48.540;9.268;2024-01-15T10:22:13;96225.91;;;2.63;100.00
5284;BME280;15377;48.540;9.268;2024-01-15T10:24:40;96211.09;;;2.55;100.00
5284;BME280;15377;48.540;9.268;2024-01-15T10:27:09;96207.81;;;2.60;100.00
5284;BME280;15377;48.540;9.268;2024-01-15T10:29:35;96200.59;;;2.66;100.00
5284;BME280;15377;48.540;9.268;2024-01-15T10:32:01;96197.56;;;2.64;100.00
5284;BME280;15377;48.540;9.268;2024-01-15T10:34:27;96184.75;;;2.65;100.00
5284;BME280;15377;48.540;9.268;2024-01-15T10:36:53;96190.00;;;2.59;100.00
5284;BME280;15377;48.540;9.268;2024-01-15T10:39:22;96194.81;;;2.55;100.00
5284;BME280;15377;48.540;9.268;2024-01-15T10:41:47;96188.38;;;2.62;100.00
5284;BME280;15377;48.540;9.268;2024-01-15T10:44:13;96188.78;;;2.51;100.00
5284;BME280;15377;48.540;9.268;2024-01-15T10:46:38;96171.72;;;2.51;100.00
5284;BME280;15377;48.540;9.268;2024-01-15T10:49:04;96162.22;;;2.55;100.00
5284;BME280;15377;48.540;9.268;2024-01-15T10:51:30;96188.38;;;2.62;100.00
5284;BME280;15377;48.540;9.268;2024-01-15T10:53:56;96194.41;;;2.66;100.00
5284;BME280;15377;48.540;9.268;2024-01-15T10:56:23;96197.25;;;2.62;100.00
5284;BME280;15377;48.540;9.268;2024-01-15T10:58:50;96176.56;;;2.47;100.00
5284;BME280;15377;48.540;9.268;2024-01-15T11:01:16;96192.41;;;2.48;100.00
5284;BME280;15377;48.540;9.268;2024-01-15T11:03:42;96178.97;;;2.45;100.00
5284;BME280;15377;48.540;9.268;2024-01-15T11:06:18;96191.94;;;2.50;100.00
5284;BME280;15377;48.540;9.268;2024-01-15T11:08:47;96182.84;;;2.44;100.00
5284;BME280;15377;48.540;9.268;2024-01-15T11:11:13;96189.38;;;2.55;100.00
5284;BME280;15377;48.540;9.268;2024-01-15T11:16:09;96215.91;;;2.42;100.00
5284;BME280;15377;48.540;9.268;2024-01-15T11:18:42;96214.81;;;2.40;100.00
5284;BME280;15377;48.540;9.268;2024-01-15T11:23:43;96215.59;;;2.40;100.00
5284;BME280;15377;48.540;9.268;2024-01-15T11:28:54;96206.53;;;2.34;100.00
5284;BME280;15377;48.540;9.268;2024-01-15T11:31:20;96189.03;;;2.35;100.00
5284;BME280;15377;48.540;9.268;2024-01-15T11:33:51;96189.06;;;2.44;100.00
5284;BME280;15377;48.540;9.268;2024-01-15T11:36:17;96191.78;;;2.53;100.00
5284;BME280;15377;48.540;9.268;2024-01-15T11:38:42;96194.06;;;2.55;100.00
5284;BME280;15377;48.540;9.268;2024-01-15T11:41:14;96180.06;;;2.56;100.00
5284;BME280;15377;48.540;9.268;2024-01-15T11:43:41;96181.88;;;2.59;100.00
5284;BME280;15377;48.540;9.268;2024-01-15T11:46:10;96190.91;;;2.56;100.00
5284;BME280;15377;48.540;9.268;2024-01-15T11:48:43;96183.66;;;2.53;100.00
5284;BME280;15377;48.540;9.268;2024-01-15T11:51:12;96162.69;;;2.45;100.00
5284;BME280;15377;48.540;9.268;2024-01-15T11:53:45;96192.03;;;2.37;100.00
5284;BME280;15377;48.540;9.268;2024-01-15T11:56:16;96181.72;;;2.23;100.00
5284;BME280;15377;48.540;9.268;2024-01-15T11:58:42;96193.06;;;2.00;100.00
5284;BME280;15377;48.540;9.268;2024-01-15T12:01:09;96180.09;;;1.95;100.00
5284;BME280;15377;48.540;9.268;2024-01-15T12:03:35;96173.56;;;1.84;100.00
5284;BME280;15377;48.540;9.268;2024-01-15T12:06:00;96189.84;;;1.84;100.00
5284;BME280;15377;48.540;9.268;2024-01-15T12:08:26;96179.03;;;1.93;100.00
5284;BME280;15377;48.540;9.268;2024-01-15T12:10:52;96186.41;;;1.92;100.00
5284;BME280;15377;48.540;9.268;2024-01-15T12:13:18;96192.69;;;2.11;100.00
5284;BME280;15377;48.540;9.268;2024-01-15T12:15:45;96181.97;;;2.07;100.00
5284;BME280;15377;48.540;9.268;2024-01-15T12:18:13;96189.53;;;2.12;100.00
5284;BME280;15377;48.540;9.268;2024-01-15T12:20:40;96178.72;;;2.21;100.00
5284;BME280;15377;48.540;9.268;2024-01-15T12:23:06;96167.28;;;2.26;100.00
5284;BME280;15377;48.540;9.268;2024-01-15T12:25:32;96162.16;;;2.28;100.00
5284;BME280;15377;48.540;9.268;2024-01-15T12:27:59;96182.41;;;2.36;100.00
5284;BME280;15377;48.540;9.268;2024-01-15T12:30:26;96160.94;;;2.20;100.00
5284;BME280;15377;48.540;9.268;2024-01-15T12:32:51;96186.19;;;2.39;100.00
5284;BME280;15377;48.540;9.268;2024-01-15T12:35:17;96177.25;;;2.29;100.00
5284;BME280;15377;48.540;9.268;2024-01-15T12:37:43;96169.75;;;2.42;100.00
5284;BME280;15377;48.540;9.268;2024-01-15T12:40:10;96173.94;;;2.34;100.00
5284;BME280;15377;48.540;9.268;2024-01-15T12:42:42;96157.56;;;2.16;100.00
5284;BME280;15377;48.540;9.268;2024-01-15T12:45:09;96176.31;;;2.23;100.00
5284;BME280;15377;48.540;9.268;2024-01-15T12:47:36;96168.94;;;2.24;100.00
5284;BME280;15377;48.540;9.268;2024-01-15T12:50:02;96173.16;;;2.25;100.00
5284;BME280;15377;48.540;9.268;2024-01-15T12:52:28;96184.03;;;2.34;100.00
5284;BME280;15377;48.540;9.268;2024-01-15T12:54:54;96184.69;;;2.07;100.00
5284;BME280;15377;48.540;9.268;2024-01-15T12:57:19;96189.63;;;2.00;100.00
5284;BME280;15377;48.540;9.268;2024-01-15T12:59:45;96208.34;;;2.07;100.00
5284;BME280;15377;48.540;9.268;2024-01-15T13:02:11;96191.56;;;1.99;100.00
5284;BME280;15377;48.540;9.268;2024-01-15T13:04:37;96201.22;;;2.00;100.00